createdAt,value
2023-05-21T00:04:40.876Z,81.37
2023-05-21T00:09:41.787Z,81.74
2023-05-21T00:14:42.508Z,82.24
2023-05-21T00:19:44.787Z,82.42
2023-05-21T00:24:45.942Z,82.70
2023-05-21T00:29:46.621Z,82.84
2023-05-21T00:34:49.068Z,82.69
2023-05-21T00:39:49.729Z,82.65
2023-05-21T00:44:50.463Z,83.33
2023-05-21T00:49:53.398Z,83.34
2023-05-21T00:54:54.720Z,83.35
2023-05-21T00:59:55.522Z,83.46
2023-05-21T01:04:57.523Z,84.12
2023-05-21T01:09:58.248Z,83.74
2023-05-21T01:15:00.370Z,83.25
2023-05-21T01:20:04.440Z,84.20
2023-05-21T01:25:08.470Z,84.04
2023-05-21T01:30:10.200Z,83.68
2023-05-21T01:35:15.018Z,84.66
2023-05-21T01:40:24.499Z,84.33
2023-05-21T01:45:28.314Z,84.70
2023-05-21T01:50:31.910Z,84.53
2023-05-21T01:55:34.687Z,84.44
2023-05-21T02:00:35.562Z,85.07
2023-05-21T02:05:36.683Z,84.46
2023-05-21T02:10:40.003Z,85.05
2023-05-21T02:15:40.717Z,84.91
2023-05-21T02:20:41.436Z,84.86
2023-05-21T02:25:44.025Z,85.20
2023-05-21T02:30:44.755Z,85.46
2023-05-21T02:35:45.920Z,84.64
2023-05-21T02:40:48.843Z,85.75
2023-05-21T02:45:51.438Z,86.12
2023-05-21T02:50:52.787Z,85.46
2023-05-21T02:55:54.855Z,85.73
2023-05-21T03:00:55.664Z,85.42
2023-05-21T03:05:56.475Z,86.22
2023-05-21T03:10:58.530Z,85.89
2023-05-21T03:15:59.549Z,85.92
2023-05-21T03:21:00.317Z,86.34
2023-05-21T03:26:02.411Z,86.71
2023-05-21T03:31:03.350Z,86.55
2023-05-21T03:36:21.665Z,85.69
2023-05-21T03:41:23.866Z,85.60
2023-05-21T03:46:29.974Z,85.62
2023-05-21T03:51:43.478Z,85.30
2023-05-21T03:56:49.479Z,85.98
2023-05-21T04:01:50.401Z,85.53
2023-05-21T04:06:54.278Z,85.11
2023-05-21T04:11:57.929Z,84.52
2023-05-21T04:16:58.626Z,83.89
2023-05-21T04:21:59.378Z,83.11
2023-05-21T04:27:01.766Z,82.05
2023-05-21T04:32:05.165Z,81.04
2023-05-21T04:37:06.900Z,80.43
2023-05-21T04:42:11.013Z,80.04
2023-05-21T04:47:12.366Z,79.23
2023-05-21T04:52:13.574Z,78.39
2023-05-21T04:57:15.635Z,77.63
2023-05-21T05:02:16.337Z,76.93
2023-05-21T05:07:17.325Z,75.31
2023-05-21T05:12:19.392Z,74.55
2023-05-21T05:17:20.100Z,73.54
2023-05-21T05:22:20.928Z,72.60
2023-05-21T05:27:23.087Z,71.94
2023-05-21T05:32:23.896Z,70.20
2023-05-21T05:37:24.803Z,69.28
2023-05-21T05:42:27.004Z,67.95
2023-05-21T05:47:28.313Z,67.18
2023-05-21T05:52:29.381Z,66.76
2023-05-21T05:57:31.432Z,65.84
2023-05-21T06:02:36.725Z,65.12
2023-05-21T06:07:38.998Z,64.42
2023-05-21T06:12:41.195Z,63.57
2023-05-21T06:17:42.753Z,62.47
2023-05-21T06:22:45.908Z,61.73
2023-05-21T06:27:48.060Z,61.36
2023-05-21T06:32:54.338Z,61.02
2023-05-21T06:37:55.393Z,60.02
2023-05-21T06:42:59.774Z,59.60
2023-05-21T06:48:19.158Z,59.23
2023-05-21T06:53:21.721Z,58.81
2023-05-21T06:58:24.165Z,58.00
2023-05-21T07:03:25.492Z,57.88
2023-05-21T07:08:26.490Z,58.06
2023-05-21T07:13:28.868Z,57.81
2023-05-21T07:18:29.811Z,56.91
2023-05-21T07:23:30.626Z,57.16
2023-05-21T07:28:32.791Z,57.00
2023-05-21T07:33:34.654Z,56.76
2023-05-21T07:38:35.558Z,55.74
2023-05-21T07:43:38.151Z,55.20
2023-05-21T07:48:39.138Z,55.63
2023-05-21T07:53:41.690Z,54.41
2023-05-21T07:58:47.379Z,53.96
2023-05-21T08:03:49.821Z,53.10
2023-05-21T08:08:50.877Z,53.49
2023-05-21T08:13:53.632Z,53.32
2023-05-21T08:18:55.408Z,53.61
2023-05-21T08:23:56.206Z,52.77
2023-05-21T08:28:58.353Z,53.02
2023-05-21T08:33:59.121Z,52.55
2023-05-21T08:39:12.642Z,53.41
2023-05-21T08:44:21.737Z,52.80
2023-05-21T08:49:27.141Z,52.37
2023-05-21T08:54:29.650Z,53.11
2023-05-21T08:59:31.943Z,52.75
2023-05-21T09:04:33.958Z,53.31
2023-05-21T09:09:40.784Z,53.74
2023-05-21T09:14:44.489Z,53.17
2023-05-21T09:20:09.721Z,52.44
2023-05-21T09:25:12.349Z,51.35
2023-05-21T09:30:17.263Z,51.26
2023-05-21T09:35:18.036Z,50.28
2023-05-21T09:40:20.449Z,50.05
2023-05-21T09:45:24.750Z,48.77
2023-05-21T09:50:28.663Z,47.39
2023-05-21T09:55:29.889Z,47.73
2023-05-21T10:00:32.834Z,47.17
2023-05-21T10:05:34.483Z,46.03
2023-05-21T10:10:38.289Z,44.33
2023-05-21T10:15:45.140Z,44.43
2023-05-21T10:20:47.555Z,42.54
2023-05-21T10:25:50.397Z,42.99
2023-05-21T10:30:53.591Z,42.14
2023-05-21T10:35:59.346Z,43.14
2023-05-21T10:41:01.984Z,45.24
2023-05-21T10:46:25.804Z,45.26
2023-05-21T10:51:29.120Z,44.71
2023-05-21T10:56:37.518Z,43.43
2023-05-21T11:01:42.234Z,41.30
2023-05-21T11:06:48.233Z,38.79
2023-05-21T11:11:52.369Z,38.02
2023-05-21T11:16:54.708Z,38.45
2023-05-21T11:21:56.712Z,38.15
2023-05-21T11:27:05.793Z,38.29
2023-05-21T11:32:10.263Z,38.05
2023-05-21T11:37:31.486Z,37.58
2023-05-21T11:42:34.114Z,36.53
2023-05-21T11:47:36.442Z,35.76
2023-05-21T11:52:37.317Z,35.95
2023-05-21T11:57:39.063Z,37.38
2023-05-21T12:02:45.844Z,37.04
2023-05-21T12:07:50.714Z,38.57
2023-05-21T12:12:56.237Z,38.59
2023-05-21T12:17:59.620Z,41.77
2023-05-21T12:23:00.877Z,41.26
2023-05-21T12:28:05.468Z,41.93
2023-05-21T12:33:07.532Z,40.35
2023-05-21T12:38:09.759Z,39.17
2023-05-21T12:43:10.496Z,39.66
2023-05-21T12:48:12.687Z,38.98
2023-05-21T12:53:13.488Z,37.88
2023-05-21T12:58:15.032Z,38.64
2023-05-21T13:03:17.150Z,39.75
2023-05-21T13:08:17.921Z,38.54
2023-05-21T13:13:18.671Z,38.17
2023-05-21T13:18:21.791Z,37.71
2023-05-21T13:23:22.668Z,37.03
2023-05-21T13:28:24.615Z,37.58
2023-05-21T13:33:26.806Z,36.81
2023-05-21T13:38:27.597Z,40.52
2023-05-21T13:43:28.317Z,40.15
2023-05-21T13:48:30.368Z,41.22
2023-05-21T13:53:31.133Z,41.78
2023-05-21T13:58:34.558Z,37.51
2023-05-21T14:03:36.637Z,39.00
2023-05-21T14:08:37.823Z,38.33
2023-05-21T14:13:38.556Z,38.23
2023-05-21T14:18:41.083Z,36.88
2023-05-21T14:23:41.864Z,36.42
2023-05-21T14:28:43.060Z,35.53
2023-05-21T14:33:45.092Z,34.35
2023-05-21T14:38:45.998Z,34.30
2023-05-21T14:43:46.719Z,34.56
2023-05-21T14:48:48.922Z,33.50
2023-05-21T14:53:49.665Z,33.75
2023-05-21T14:58:50.386Z,34.03
2023-05-21T15:03:52.605Z,34.64
2023-05-21T15:08:54.451Z,35.53
2023-05-21T15:13:55.179Z,35.61
2023-05-21T15:18:57.308Z,37.49
2023-05-21T15:23:58.060Z,37.65
2023-05-21T15:28:58.762Z,38.39
2023-05-21T15:34:00.901Z,36.61
2023-05-21T15:39:03.433Z,36.66
2023-05-21T15:44:04.375Z,36.56
2023-05-21T15:49:06.455Z,36.91
2023-05-21T15:54:07.560Z,37.16
2023-05-21T15:59:08.508Z,36.41
2023-05-21T16:04:11.532Z,36.28
2023-05-21T16:09:12.437Z,35.69
2023-05-21T16:14:13.565Z,34.62
2023-05-21T16:19:15.630Z,35.08
2023-05-21T16:24:16.527Z,32.43
2023-05-21T16:29:17.427Z,29.48
2023-05-21T16:34:19.436Z,27.97
2023-05-21T16:39:20.172Z,27.76
2023-05-21T16:44:21.144Z,28.42
2023-05-21T16:49:23.196Z,27.87
2023-05-21T16:54:23.975Z,27.56
2023-05-21T16:59:24.815Z,27.31
2023-05-21T17:04:26.819Z,27.28
2023-05-21T17:09:27.511Z,27.61
2023-05-21T17:14:34.534Z,28.97
2023-05-21T17:19:37.576Z,29.99
2023-05-21T17:24:38.435Z,32.43
2023-05-21T17:29:39.164Z,32.77
2023-05-21T17:34:41.251Z,33.99
2023-05-21T17:39:42.225Z,35.00
2023-05-21T17:44:43.088Z,35.35
2023-05-21T17:49:45.156Z,36.27
2023-05-21T17:54:45.991Z,38.42
2023-05-21T17:59:46.759Z,39.36
2023-05-21T18:04:48.812Z,40.31
2023-05-21T18:09:52.280Z,42.14
2023-05-21T18:14:53.040Z,42.88
2023-05-21T18:19:55.054Z,44.29
2023-05-21T18:24:55.906Z,44.91
2023-05-21T18:29:56.955Z,46.53
2023-05-21T18:34:59.306Z,47.35
2023-05-21T18:40:00.116Z,47.93
2023-05-21T18:45:06.904Z,48.49
2023-05-21T18:50:12.775Z,49.35
2023-05-21T18:55:13.737Z,49.99
2023-05-21T19:00:15.104Z,49.81
2023-05-21T19:05:17.618Z,49.40
2023-05-21T19:10:19.692Z,49.91
2023-05-21T19:15:20.680Z,50.40
2023-05-21T19:20:26.646Z,50.43
2023-05-21T19:25:27.512Z,51.12
2023-05-21T19:30:28.427Z,51.91
2023-05-21T19:35:31.166Z,51.29
2023-05-21T19:40:31.890Z,51.78
2023-05-21T19:45:32.713Z,52.54
2023-05-21T19:50:35.298Z,52.14
2023-05-21T19:55:37.507Z,51.71
2023-05-21T20:00:39.292Z,52.05
2023-05-21T20:05:41.424Z,53.16
2023-05-21T20:10:42.284Z,53.30
2023-05-21T20:15:42.992Z,54.04
2023-05-21T20:20:46.673Z,54.25
2023-05-21T20:25:47.425Z,54.81
2023-05-21T20:30:57.514Z,55.15
2023-05-21T20:35:59.836Z,55.55
2023-05-21T20:41:00.944Z,56.32
2023-05-21T20:46:02.251Z,56.67
2023-05-21T20:51:04.580Z,57.40
2023-05-21T20:56:08.542Z,58.41
2023-05-21T21:01:10.619Z,59.14
2023-05-21T21:06:13.035Z,59.71
2023-05-21T21:11:14.209Z,60.53
2023-05-21T21:16:14.936Z,60.72
2023-05-21T21:21:17.157Z,61.32
2023-05-21T21:26:18.746Z,62.41
2023-05-21T21:31:19.970Z,62.91
2023-05-21T21:36:22.012Z,63.31
2023-05-21T21:41:24.118Z,63.28
2023-05-21T21:46:25.587Z,63.37
2023-05-21T21:51:27.659Z,64.30
2023-05-21T21:56:28.372Z,64.21
2023-05-21T22:01:29.521Z,64.12
2023-05-21T22:06:31.885Z,65.17
2023-05-21T22:11:32.576Z,65.53
2023-05-21T22:16:34.255Z,65.84
2023-05-21T22:21:36.463Z,66.18
2023-05-21T22:26:37.147Z,67.02
2023-05-21T22:31:38.140Z,67.15
2023-05-21T22:36:40.708Z,67.59
2023-05-21T22:41:43.134Z,67.56
2023-05-21T22:46:44.489Z,67.80
2023-05-21T22:51:47.081Z,68.05
2023-05-21T22:56:49.321Z,68.76
2023-05-21T23:01:50.146Z,69.96
2023-05-21T23:06:52.353Z,69.53
2023-05-21T23:11:53.209Z,70.15
2023-05-21T23:16:54.495Z,69.71
2023-05-21T23:21:56.857Z,69.79
2023-05-21T23:27:01.976Z,69.46
2023-05-21T23:32:05.123Z,69.48
2023-05-21T23:37:07.481Z,69.63
2023-05-21T23:42:08.670Z,70.21
2023-05-21T23:47:09.336Z,70.39
2023-05-21T23:52:13.072Z,71.07
2023-05-21T23:57:14.205Z,71.31
